Monday, January 22, 2018, 8:44 AM EST
Back to Local

KHGR, Hagerstown Regional Airport

Location: Hagerstown, MD, United States Lat: 39.7
Local Time: 8:44 AM EST (13:44 GMT) Lon: -77.733
Time Zone: US/Eastern Elev: 705 ft

Show me the last for .
Show Decoded

2018-01-22 08:25 METAR KHGR 221325Z 00000KT 2 1/2SM BR FEW040 SCT060 OVC085 07/04 A3011 RMK AO2
                 T00670044 =
2018-01-22 08:15 METAR KHGR 221315Z 31004KT 3SM HZ FEW040 SCT060 OVC085 07/04 A3011 RMK AO2
                 T00720044 =
2018-01-22 08:03 METAR KHGR 221303Z 00000KT 2 1/2SM BR FEW040 OVC085 07/04 A3011 RMK AO2
                 T00670044 =
2018-01-22 07:53 METAR KHGR 221253Z 30003KT 3SM BR OVC090 07/04 A3011 RMK AO2 SLP209 T00670044 =
2018-01-22 06:53 METAR KHGR 221153Z 32003KT 4SM BR OVC100 06/04 A3010 RMK AO2 SLP204 T00610039
                 10111 20061 53002 =
2018-01-22 05:53 METAR KHGR 221053Z AUTO 31004KT 4SM HZ OVC095 07/04 A3009 RMK AO2 SLP203
                 T00720044 =
2018-01-22 04:53 METAR KHGR 220953Z AUTO 00000KT 7SM FEW043 BKN060 OVC090 08/05 A3009 RMK AO2
                 SLP201 T00780050 =
2018-01-22 03:53 METAR KHGR 220853Z AUTO 31003KT 7SM OVC090 07/04 A3009 RMK AO2 SLP202 T00720044
                 56003 =
2018-01-22 02:53 METAR KHGR 220753Z AUTO 15005KT 10SM OVC090 11/06 A3009 RMK AO2 SLP201 T01110061
                 =
2018-01-22 01:53 METAR KHGR 220653Z AUTO 00000KT 10SM SCT042 SCT050 OVC090 11/06 A3010 RMK AO2
                 SLP203 T01060056 =
2018-01-22 00:53 METAR KHGR 220553Z AUTO 20003KT 10SM BKN043 OVC090 10/05 A3010 RMK AO2 SLP205
                 T01000050 10111 20083 58002 =
2018-01-21 23:53 METAR KHGR 220453Z AUTO 22005KT 10SM OVC041 11/05 A3011 RMK AO2 SLP207 T01110050
                 401390061 =
2018-01-21 22:53 METAR KHGR 220353Z AUTO 00000KT 10SM BKN047 OVC055 09/04 A3011 RMK AO2 SLP209
                 T00940044 =
2018-01-21 21:53 METAR KHGR 220253Z 00000KT 10SM OVC055 10/04 A3011 RMK AO2 SLP208 T01000044
                 58001 =
2018-01-21 20:53 METAR KHGR 220153Z 00000KT 10SM BKN060 OVC080 11/04 A3011 RMK AO2 SLP207
                 T01060044 =
2018-01-21 19:53 METAR KHGR 220053Z 00000KT 10SM OVC055 10/04 A3012 RMK AO2 SLP211 T01000044 =
2018-01-21 18:53 METAR KHGR 212353Z 00000KT 10SM FEW048 SCT070 11/05 A3011 RMK AO2 SLP209
                 T01060050 10139 20094 50001 =
2018-01-21 17:53 METAR KHGR 212253Z 00000KT 10SM OVC075 11/05 A3011 RMK AO2 SLP210 T01060050 =
2018-01-21 16:53 METAR KHGR 212153Z 14003KT 10SM BKN075 13/06 A3010 RMK AO2 SLP206 T01330056 =
2018-01-21 15:53 METAR KHGR 212053Z 18005KT 10SM OVC075 13/06 A3011 RMK AO2 SLP207 T01330061
                 56006 =
2018-01-21 14:53 METAR KHGR 211953Z 20004KT 10SM SCT034 SCT055 OVC075 13/05 A3011 RMK AO2 SLP207
                 T01330050 =
2018-01-21 13:53 METAR KHGR 211853Z 20004KT 10SM FEW036 OVC075 13/05 A3011 RMK AO2 SLP209
                 T01330050 =
2018-01-21 12:53 METAR KHGR 211753Z 18003KT 10SM OVC070 12/05 A3013 RMK AO2 SLP213 60000
                 T01220050 10122 20061 58021 =
2018-01-21 11:53 METAR KHGR 211653Z 20006KT 10SM FEW032 OVC070 11/04 A3016 RMK AO2 SLP226
                 T01110044 =
2018-01-21 10:53 METAR KHGR 211553Z 15006KT 10SM OVC033 09/04 A3018 RMK AO2 RAE02 SLP233 P0000
                 T00940039 =
2018-01-21 09:53 METAR KHGR 211453Z 00000KT 5SM -RA OVC032 08/03 A3019 RMK AO2 RAB53 SLP235 P0000
                 60000 T00780033 53014 =
2018-01-21 08:53 METAR KHGR 211353Z 14004KT 10SM OVC035 08/03 A3017 RMK AO2 SLP230 T00780028 =

Support USWX by starting your Amazon purchase here.